sensor_id;sensor_type;location;lat;lon;timestamp;P1;durP1;ratioP1;P2;durP2;ratioP2
49444;SDS011;35323;43.080;-81.378;2023-12-29T00:00:24;0.47;;;0.47;;
49444;SDS011;35323;43.080;-81.378;2023-12-29T00:02:54;0.40;;;0.40;;
49444;SDS011;35323;43.080;-81.378;2023-12-29T00:05:22;0.70;;;0.70;;
49444;SDS011;35323;43.080;-81.378;2023-12-29T00:07:50;0.35;;;0.35;;
49444;SDS011;35323;43.080;-81.378;2023-12-29T00:10:17;0.50;;;0.35;;
49444;SDS011;35323;43.080;-81.378;2023-12-29T00:12:46;0.30;;;0.30;;
49444;SDS011;35323;43.080;-81.378;2023-12-29T00:15:16;0.35;;;0.35;;
49444;SDS011;35323;43.080;-81.378;2023-12-29T00:17:45;0.93;;;0.82;;
49444;SDS011;35323;43.080;-81.378;2023-12-29T00:20:14;0.32;;;0.32;;
49444;SDS011;35323;43.080;-81.378;2023-12-29T00:22:59;0.40;;;0.40;;
49444;SDS011;35323;43.080;-81.378;2023-12-29T00:25:27;0.40;;;0.40;;
49444;SDS011;35323;43.080;-81.378;2023-12-29T00:27:54;1.85;;;0.65;;
49444;SDS011;35323;43.080;-81.378;2023-12-29T00:30:22;0.50;;;0.38;;
49444;SDS011;35323;43.080;-81.378;2023-12-29T00:35:22;1.70;;;1.10;;
49444;SDS011;35323;43.080;-81.378;2023-12-29T00:37:51;0.57;;;0.43;;
49444;SDS011;35323;43.080;-81.378;2023-12-29T00:40:19;0.65;;;0.45;;
49444;SDS011;35323;43.080;-81.378;2023-12-29T00:42:47;0.65;;;0.65;;
49444;SDS011;35323;43.080;-81.378;2023-12-29T00:45:15;0.63;;;0.63;;
49444;SDS011;35323;43.080;-81.378;2023-12-29T00:47:43;0.35;;;0.35;;
49444;SDS011;35323;43.080;-81.378;2023-12-29T00:50:14;1.35;;;1.25;;
49444;SDS011;35323;43.080;-81.378;2023-12-29T00:52:41;0.70;;;0.70;;
49444;SDS011;35323;43.080;-81.378;2023-12-29T00:55:09;0.93;;;0.63;;
49444;SDS011;35323;43.080;-81.378;2023-12-29T00:57:37;0.50;;;0.50;;
49444;SDS011;35323;43.080;-81.378;2023-12-29T01:00:05;1.10;;;0.95;;
49444;SDS011;35323;43.080;-81.378;2023-12-29T01:02:34;0.70;;;0.60;;
49444;SDS011;35323;43.080;-81.378;2023-12-29T01:05:02;0.85;;;0.50;;
49444;SDS011;35323;43.080;-81.378;2023-12-29T01:07:30;0.77;;;0.68;;
49444;SDS011;35323;43.080;-81.378;2023-12-29T01:09:58;1.73;;;0.63;;
49444;SDS011;35323;43.080;-81.378;2023-12-29T01:12:26;1.27;;;0.85;;
49444;SDS011;35323;43.080;-81.378;2023-12-29T01:14:54;0.70;;;0.70;;
49444;SDS011;35323;43.080;-81.378;2023-12-29T01:17:23;0.73;;;0.73;;
49444;SDS011;35323;43.080;-81.378;2023-12-29T01:19:51;1.23;;;0.98;;
49444;SDS011;35323;43.080;-81.378;2023-12-29T01:22:18;2.00;;;1.25;;
49444;SDS011;35323;43.080;-81.378;2023-12-29T01:24:47;1.55;;;0.85;;
49444;SDS011;35323;43.080;-81.378;2023-12-29T01:27:15;1.05;;;0.85;;
49444;SDS011;35323;43.080;-81.378;2023-12-29T01:29:42;0.50;;;0.50;;
49444;SDS011;35323;43.080;-81.378;2023-12-29T01:32:11;0.60;;;0.60;;
49444;SDS011;35323;43.080;-81.378;2023-12-29T01:34:39;2.08;;;0.82;;
49444;SDS011;35323;43.080;-81.378;2023-12-29T01:37:08;1.75;;;0.93;;
49444;SDS011;35323;43.080;-81.378;2023-12-29T01:39:36;2.80;;;0.90;;
49444;SDS011;35323;43.080;-81.378;2023-12-29T01:42:03;1.30;;;0.98;;
49444;SDS011;35323;43.080;-81.378;2023-12-29T01:44:32;1.02;;;0.77;;
49444;SDS011;35323;43.080;-81.378;2023-12-29T01:47:00;0.90;;;0.90;;
49444;SDS011;35323;43.080;-81.378;2023-12-29T01:49:28;0.88;;;0.55;;
49444;SDS011;35323;43.080;-81.378;2023-12-29T01:52:00;0.75;;;0.75;;
49444;SDS011;35323;43.080;-81.378;2023-12-29T01:54:29;4.00;;;1.95;;
49444;SDS011;35323;43.080;-81.378;2023-12-29T01:57:02;2.22;;;0.80;;
49444;SDS011;35323;43.080;-81.378;2023-12-29T01:59:29;4.47;;;1.33;;
49444;SDS011;35323;43.080;-81.378;2023-12-29T02:01:59;0.70;;;0.57;;
49444;SDS011;35323;43.080;-81.378;2023-12-29T02:04:27;2.10;;;1.90;;
49444;SDS011;35323;43.080;-81.378;2023-12-29T02:06:55;1.92;;;1.30;;
49444;SDS011;35323;43.080;-81.378;2023-12-29T02:09:23;0.60;;;0.60;;
49444;SDS011;35323;43.080;-81.378;2023-12-29T02:11:54;1.15;;;0.70;;
49444;SDS011;35323;43.080;-81.378;2023-12-29T02:14:21;2.22;;;1.15;;
49444;SDS011;35323;43.080;-81.378;2023-12-29T02:22:07;11.15;;;1.70;;
49444;SDS011;35323;43.080;-81.378;2023-12-29T02:24:35;2.42;;;1.48;;
49444;SDS011;35323;43.080;-81.378;2023-12-29T02:29:44;1.30;;;0.93;;
49444;SDS011;35323;43.080;-81.378;2023-12-29T02:32:13;1.60;;;1.42;;
49444;SDS011;35323;43.080;-81.378;2023-12-29T02:34:43;2.75;;;1.13;;
49444;SDS011;35323;43.080;-81.378;2023-12-29T02:37:12;0.82;;;0.82;;
49444;SDS011;35323;43.080;-81.378;2023-12-29T02:39:42;0.57;;;0.57;;
49444;SDS011;35323;43.080;-81.378;2023-12-29T02:42:10;0.80;;;0.73;;
49444;SDS011;35323;43.080;-81.378;2023-12-29T02:44:37;1.80;;;1.63;;
49444;SDS011;35323;43.080;-81.378;2023-12-29T02:47:06;1.60;;;0.88;;
49444;SDS011;35323;43.080;-81.378;2023-12-29T02:49:34;1.75;;;1.13;;
49444;SDS011;35323;43.080;-81.378;2023-12-29T02:52:02;1.55;;;1.33;;
49444;SDS011;35323;43.080;-81.378;2023-12-29T02:54:29;1.17;;;1.08;;
49444;SDS011;35323;43.080;-81.378;2023-12-29T02:56:57;0.95;;;0.95;;
49444;SDS011;35323;43.080;-81.378;2023-12-29T02:59:25;1.48;;;1.23;;
49444;SDS011;35323;43.080;-81.378;2023-12-29T03:01:52;0.57;;;0.57;;
49444;SDS011;35323;43.080;-81.378;2023-12-29T03:04:20;4.07;;;0.98;;
49444;SDS011;35323;43.080;-81.378;2023-12-29T03:06:48;1.27;;;0.85;;
49444;SDS011;35323;43.080;-81.378;2023-12-29T03:09:15;1.00;;;0.90;;
49444;SDS011;35323;43.080;-81.378;2023-12-29T03:11:46;2.22;;;2.03;;
49444;SDS011;35323;43.080;-81.378;2023-12-29T03:14:16;2.72;;;1.55;;
49444;SDS011;35323;43.080;-81.378;2023-12-29T03:16:44;0.75;;;0.75;;
49444;SDS011;35323;43.080;-81.378;2023-12-29T03:19:12;0.47;;;0.40;;
49444;SDS011;35323;43.080;-81.378;2023-12-29T03:21:39;1.17;;;0.95;;
49444;SDS011;35323;43.080;-81.378;2023-12-29T03:24:08;1.45;;;1.30;;
49444;SDS011;35323;43.080;-81.378;2023-12-29T03:26:35;2.20;;;1.67;;
49444;SDS011;35323;43.080;-81.378;2023-12-29T03:29:03;1.35;;;1.25;;
49444;SDS011;35323;43.080;-81.378;2023-12-29T03:31:30;0.95;;;0.95;;
49444;SDS011;35323;43.080;-81.378;2023-12-29T03:33:58;0.95;;;0.95;;
49444;SDS011;35323;43.080;-81.378;2023-12-29T03:36:26;1.95;;;0.63;;
49444;SDS011;35323;43.080;-81.378;2023-12-29T03:38:54;1.02;;;0.88;;
49444;SDS011;35323;43.080;-81.378;2023-12-29T03:41:21;1.10;;;1.02;;
49444;SDS011;35323;43.080;-81.378;2023-12-29T03:43:49;1.55;;;0.82;;
49444;SDS011;35323;43.080;-81.378;2023-12-29T03:46:20;0.95;;;0.50;;
49444;SDS011;35323;43.080;-81.378;2023-12-29T03:48:48;0.60;;;0.60;;
49444;SDS011;35323;43.080;-81.378;2023-12-29T03:51:17;1.65;;;1.55;;
49444;SDS011;35323;43.080;-81.378;2023-12-29T03:53:45;0.80;;;0.75;;
49444;SDS011;35323;43.080;-81.378;2023-12-29T03:56:16;0.73;;;0.73;;
49444;SDS011;35323;43.080;-81.378;2023-12-29T03:58:45;2.33;;;1.05;;
49444;SDS011;35323;43.080;-81.378;2023-12-29T04:01:13;2.60;;;1.20;;
49444;SDS011;35323;43.080;-81.378;2023-12-29T04:03:41;0.77;;;0.77;;
49444;SDS011;35323;43.080;-81.378;2023-12-29T04:06:09;3.33;;;1.33;;
49444;SDS011;35323;43.080;-81.378;2023-12-29T04:08:39;0.70;;;0.70;;
49444;SDS011;35323;43.080;-81.378;2023-12-29T04:11:07;1.85;;;0.50;;
49444;SDS011;35323;43.080;-81.378;2023-12-29T04:13:35;1.15;;;1.05;;
49444;SDS011;35323;43.080;-81.378;2023-12-29T04:16:02;0.98;;;0.85;;
49444;SDS011;35323;43.080;-81.378;2023-12-29T04:18:30;0.82;;;0.82;;
49444;SDS011;35323;43.080;-81.378;2023-12-29T04:20:58;0.80;;;0.75;;
49444;SDS011;35323;43.080;-81.378;2023-12-29T04:23:26;1.05;;;0.93;;
49444;SDS011;35323;43.080;-81.378;2023-12-29T04:25:54;1.15;;;0.77;;
49444;SDS011;35323;43.080;-81.378;2023-12-29T04:28:21;1.42;;;1.33;;
49444;SDS011;35323;43.080;-81.378;2023-12-29T04:30:49;1.40;;;1.30;;
49444;SDS011;35323;43.080;-81.378;2023-12-29T04:33:17;0.85;;;0.80;;
49444;SDS011;35323;43.080;-81.378;2023-12-29T04:35:45;1.92;;;0.90;;
49444;SDS011;35323;43.080;-81.378;2023-12-29T04:38:12;2.08;;;1.42;;
49444;SDS011;35323;43.080;-81.378;2023-12-29T04:40:40;1.35;;;1.20;;
49444;SDS011;35323;43.080;-81.378;2023-12-29T04:43:08;1.60;;;1.50;;
49444;SDS011;35323;43.080;-81.378;2023-12-29T04:45:35;4.10;;;1.95;;
49444;SDS011;35323;43.080;-81.378;2023-12-29T04:48:03;1.35;;;1.25;;
49444;SDS011;35323;43.080;-81.378;2023-12-29T04:50:31;1.15;;;0.88;;
49444;SDS011;35323;43.080;-81.378;2023-12-29T04:52:59;2.53;;;1.33;;
49444;SDS011;35323;43.080;-81.378;2023-12-29T04:55:26;1.65;;;1.38;;
49444;SDS011;35323;43.080;-81.378;2023-12-29T04:57:54;1.73;;;1.23;;
49444;SDS011;35323;43.080;-81.378;2023-12-29T05:00:22;3.95;;;1.95;;
49444;SDS011;35323;43.080;-81.378;2023-12-29T05:02:49;1.08;;;1.00;;
49444;SDS011;35323;43.080;-81.378;2023-12-29T05:05:17;2.15;;;1.75;;
49444;SDS011;35323;43.080;-81.378;2023-12-29T05:07:45;3.35;;;1.67;;
49444;SDS011;35323;43.080;-81.378;2023-12-29T05:10:16;2.72;;;1.50;;
49444;SDS011;35323;43.080;-81.378;2023-12-29T05:12:46;2.92;;;1.48;;
49444;SDS011;35323;43.080;-81.378;2023-12-29T05:15:14;3.88;;;1.30;;
49444;SDS011;35323;43.080;-81.378;2023-12-29T05:17:43;2.20;;;1.98;;
49444;SDS011;35323;43.080;-81.378;2023-12-29T05:20:10;0.82;;;0.77;;
49444;SDS011;35323;43.080;-81.378;2023-12-29T05:22:38;0.77;;;0.77;;
49444;SDS011;35323;43.080;-81.378;2023-12-29T05:25:06;1.80;;;1.65;;
49444;SDS011;35323;43.080;-81.378;2023-12-29T05:27:34;3.55;;;1.20;;
49444;SDS011;35323;43.080;-81.378;2023-12-29T05:30:04;1.02;;;1.02;;
49444;SDS011;35323;43.080;-81.378;2023-12-29T05:32:32;2.58;;;1.80;;
49444;SDS011;35323;43.080;-81.378;2023-12-29T05:34:59;3.58;;;2.15;;
49444;SDS011;35323;43.080;-81.378;2023-12-29T05:37:27;1.83;;;1.73;;
49444;SDS011;35323;43.080;-81.378;2023-12-29T05:39:55;1.65;;;1.55;;
49444;SDS011;35323;43.080;-81.378;2023-12-29T05:42:22;2.53;;;1.95;;
49444;SDS011;35323;43.080;-81.378;2023-12-29T05:44:50;1.65;;;1.52;;
49444;SDS011;35323;43.080;-81.378;2023-12-29T05:47:19;2.92;;;2.13;;
49444;SDS011;35323;43.080;-81.378;2023-12-29T05:49:46;2.47;;;1.80;;
49444;SDS011;35323;43.080;-81.378;2023-12-29T05:52:14;1.67;;;1.15;;
49444;SDS011;35323;43.080;-81.378;2023-12-29T05:54:42;3.47;;;1.73;;
49444;SDS011;35323;43.080;-81.378;2023-12-29T05:57:10;3.65;;;2.00;;
49444;SDS011;35323;43.080;-81.378;2023-12-29T05:59:42;2.25;;;1.52;;
49444;SDS011;35323;43.080;-81.378;2023-12-29T06:02:10;1.50;;;1.42;;
49444;SDS011;35323;43.080;-81.378;2023-12-29T06:04:38;2.95;;;1.80;;
49444;SDS011;35323;43.080;-81.378;2023-12-29T06:07:06;1.75;;;1.42;;
49444;SDS011;35323;43.080;-81.378;2023-12-29T06:09:35;2.42;;;2.22;;
49444;SDS011;35323;43.080;-81.378;2023-12-29T06:12:03;2.05;;;1.85;;
49444;SDS011;35323;43.080;-81.378;2023-12-29T06:14:32;2.28;;;1.85;;
49444;SDS011;35323;43.080;-81.378;2023-12-29T06:16:59;1.55;;;1.45;;
49444;SDS011;35323;43.080;-81.378;2023-12-29T06:19:27;2.38;;;1.83;;
49444;SDS011;35323;43.080;-81.378;2023-12-29T06:21:55;4.32;;;2.03;;
49444;SDS011;35323;43.080;-81.378;2023-12-29T06:24:23;5.47;;;3.15;;
49444;SDS011;35323;43.080;-81.378;2023-12-29T06:26:51;3.65;;;3.00;;
49444;SDS011;35323;43.080;-81.378;2023-12-29T06:29:19;2.38;;;2.17;;
49444;SDS011;35323;43.080;-81.378;2023-12-29T06:31:47;2.75;;;2.55;;
49444;SDS011;35323;43.080;-81.378;2023-12-29T06:34:15;5.43;;;2.75;;
49444;SDS011;35323;43.080;-81.378;2023-12-29T06:36:43;2.83;;;2.63;;
49444;SDS011;35323;43.080;-81.378;2023-12-29T06:39:10;3.55;;;2.83;;
49444;SDS011;35323;43.080;-81.378;2023-12-29T06:41:38;3.50;;;2.83;;
49444;SDS011;35323;43.080;-81.378;2023-12-29T06:44:06;2.88;;;2.38;;
49444;SDS011;35323;43.080;-81.378;2023-12-29T06:46:34;3.20;;;2.03;;
49444;SDS011;35323;43.080;-81.378;2023-12-29T06:49:04;5.00;;;3.13;;
49444;SDS011;35323;43.080;-81.378;2023-12-29T06:51:32;6.47;;;3.83;;
49444;SDS011;35323;43.080;-81.378;2023-12-29T06:53:59;2.78;;;2.55;;
49444;SDS011;35323;43.080;-81.378;2023-12-29T06:56:27;2.22;;;1.25;;
49444;SDS011;35323;43.080;-81.378;2023-12-29T06:58:55;2.38;;;1.73;;
49444;SDS011;35323;43.080;-81.378;2023-12-29T07:01:24;3.95;;;2.85;;
49444;SDS011;35323;43.080;-81.378;2023-12-29T07:03:52;2.95;;;2.72;;
49444;SDS011;35323;43.080;-81.378;2023-12-29T07:06:20;2.83;;;2.03;;
49444;SDS011;35323;43.080;-81.378;2023-12-29T07:08:47;3.80;;;3.50;;
49444;SDS011;35323;43.080;-81.378;2023-12-29T07:11:15;2.03;;;1.83;;
49444;SDS011;35323;43.080;-81.378;2023-12-29T07:13:45;2.70;;;2.08;;
49444;SDS011;35323;43.080;-81.378;2023-12-29T07:16:13;3.72;;;2.15;;
49444;SDS011;35323;43.080;-81.378;2023-12-29T07:18:40;4.78;;;3.53;;
49444;SDS011;35323;43.080;-81.378;2023-12-29T07:21:09;1.50;;;1.15;;
49444;SDS011;35323;43.080;-81.378;2023-12-29T07:23:42;5.97;;;2.87;;
49444;SDS011;35323;43.080;-81.378;2023-12-29T07:26:09;4.50;;;2.42;;
49444;SDS011;35323;43.080;-81.378;2023-12-29T07:28:37;5.22;;;2.40;;
49444;SDS011;35323;43.080;-81.378;2023-12-29T07:31:06;3.90;;;3.60;;
49444;SDS011;35323;43.080;-81.378;2023-12-29T07:33:34;3.85;;;2.45;;
49444;SDS011;35323;43.080;-81.378;2023-12-29T07:36:02;3.28;;;2.50;;
49444;SDS011;35323;43.080;-81.378;2023-12-29T07:38:30;3.90;;;3.05;;
49444;SDS011;35323;43.080;-81.378;2023-12-29T07:40:58;6.25;;;3.53;;
49444;SDS011;35323;43.080;-81.378;2023-12-29T07:43:26;4.03;;;3.50;;
49444;SDS011;35323;43.080;-81.378;2023-12-29T07:45:53;7.43;;;4.88;;
49444;SDS011;35323;43.080;-81.378;2023-12-29T07:48:21;8.80;;;4.57;;
49444;SDS011;35323;43.080;-81.378;2023-12-29T07:50:49;3.63;;;2.72;;
49444;SDS011;35323;43.080;-81.378;2023-12-29T07:53:17;5.80;;;3.03;;
49444;SDS011;35323;43.080;-81.378;2023-12-29T07:55:44;9.50;;;3.75;;
49444;SDS011;35323;43.080;-81.378;2023-12-29T07:58:13;3.25;;;1.85;;
49444;SDS011;35323;43.080;-81.378;2023-12-29T08:00:44;2.35;;;1.65;;
49444;SDS011;35323;43.080;-81.378;2023-12-29T08:03:12;7.85;;;4.25;;
49444;SDS011;35323;43.080;-81.378;2023-12-29T08:05:39;7.03;;;2.95;;
49444;SDS011;35323;43.080;-81.378;2023-12-29T08:08:08;3.70;;;2.85;;
49444;SDS011;35323;43.080;-81.378;2023-12-29T08:10:35;5.32;;;2.35;;
49444;SDS011;35323;43.080;-81.378;2023-12-29T08:13:03;5.50;;;4.10;;
49444;SDS011;35323;43.080;-81.378;2023-12-29T08:15:31;10.02;;;5.53;;
49444;SDS011;35323;43.080;-81.378;2023-12-29T08:17:58;8.98;;;5.20;;
49444;SDS011;35323;43.080;-81.378;2023-12-29T08:20:27;7.82;;;5.50;;
49444;SDS011;35323;43.080;-81.378;2023-12-29T08:22:55;4.25;;;3.28;;
49444;SDS011;35323;43.080;-81.378;2023-12-29T08:25:23;7.45;;;4.78;;
49444;SDS011;35323;43.080;-81.378;2023-12-29T08:27:50;10.00;;;4.68;;
49444;SDS011;35323;43.080;-81.378;2023-12-29T08:30:18;3.53;;;3.13;;
49444;SDS011;35323;43.080;-81.378;2023-12-29T08:32:46;10.15;;;3.33;;
49444;SDS011;35323;43.080;-81.378;2023-12-29T08:35:13;8.15;;;4.60;;
49444;SDS011;35323;43.080;-81.378;2023-12-29T08:37:41;8.02;;;5.57;;
49444;SDS011;35323;43.080;-81.378;2023-12-29T08:40:09;7.32;;;4.97;;
49444;SDS011;35323;43.080;-81.378;2023-12-29T08:42:40;8.65;;;6.47;;
49444;SDS011;35323;43.080;-81.378;2023-12-29T08:45:08;7.03;;;4.22;;
49444;SDS011;35323;43.080;-81.378;2023-12-29T08:47:36;9.18;;;4.22;;
49444;SDS011;35323;43.080;-81.378;2023-12-29T08:50:03;14.55;;;4.25;;
49444;SDS011;35323;43.080;-81.378;2023-12-29T08:52:31;4.32;;;3.83;;
49444;SDS011;35323;43.080;-81.378;2023-12-29T08:55:00;9.10;;;4.57;;
49444;SDS011;35323;43.080;-81.378;2023-12-29T08:57:27;10.80;;;3.95;;
49444;SDS011;35323;43.080;-81.378;2023-12-29T08:59:55;11.30;;;3.40;;
49444;SDS011;35323;43.080;-81.378;2023-12-29T09:02:23;2.45;;;2.25;;
49444;SDS011;35323;43.080;-81.378;2023-12-29T09:04:50;5.85;;;3.35;;
49444;SDS011;35323;43.080;-81.378;2023-12-29T09:07:18;5.50;;;2.90;;
49444;SDS011;35323;43.080;-81.378;2023-12-29T09:09:46;8.30;;;4.32;;
49444;SDS011;35323;43.080;-81.378;2023-12-29T09:12:14;6.03;;;3.15;;
49444;SDS011;35323;43.080;-81.378;2023-12-29T09:14:42;7.22;;;4.30;;
49444;SDS011;35323;43.080;-81.378;2023-12-29T09:17:10;5.70;;;5.20;;
49444;SDS011;35323;43.080;-81.378;2023-12-29T09:19:37;10.48;;;5.80;;
49444;SDS011;35323;43.080;-81.378;2023-12-29T09:22:06;5.05;;;4.53;;
49444;SDS011;35323;43.080;-81.378;2023-12-29T09:24:35;5.28;;;3.72;;
49444;SDS011;35323;43.080;-81.378;2023-12-29T09:27:02;4.60;;;3.30;;
49444;SDS011;35323;43.080;-81.378;2023-12-29T09:29:30;8.55;;;4.00;;
49444;SDS011;35323;43.080;-81.378;2023-12-29T09:31:58;4.20;;;2.83;;
49444;SDS011;35323;43.080;-81.378;2023-12-29T09:34:26;8.52;;;3.97;;
49444;SDS011;35323;43.080;-81.378;2023-12-29T09:36:54;3.97;;;3.53;;
49444;SDS011;35323;43.080;-81.378;2023-12-29T09:39:21;6.22;;;3.75;;
49444;SDS011;35323;43.080;-81.378;2023-12-29T09:41:50;3.75;;;3.33;;
49444;SDS011;35323;43.080;-81.378;2023-12-29T09:44:19;5.43;;;1.88;;
49444;SDS011;35323;43.080;-81.378;2023-12-29T09:46:49;4.28;;;3.70;;
49444;SDS011;35323;43.080;-81.378;2023-12-29T09:49:18;7.70;;;3.38;;
49444;SDS011;35323;43.080;-81.378;2023-12-29T09:51:46;8.52;;;4.00;;
49444;SDS011;35323;43.080;-81.378;2023-12-29T09:54:19;15.95;;;3.72;;
49444;SDS011;35323;43.080;-81.378;2023-12-29T09:56:49;3.15;;;2.63;;
49444;SDS011;35323;43.080;-81.378;2023-12-29T09:59:16;2.53;;;2.28;;
49444;SDS011;35323;43.080;-81.378;2023-12-29T10:01:45;4.57;;;3.05;;
49444;SDS011;35323;43.080;-81.378;2023-12-29T10:04:12;5.85;;;4.13;;
49444;SDS011;35323;43.080;-81.378;2023-12-29T10:06:44;8.35;;;3.03;;
49444;SDS011;35323;43.080;-81.378;2023-12-29T10:09:16;8.48;;;3.85;;
49444;SDS011;35323;43.080;-81.378;2023-12-29T10:11:44;3.10;;;2.80;;
49444;SDS011;35323;43.080;-81.378;2023-12-29T10:14:18;3.63;;;1.80;;
49444;SDS011;35323;43.080;-81.378;2023-12-29T10:16:51;8.32;;;3.55;;
49444;SDS011;35323;43.080;-81.378;2023-12-29T10:24:47;3.40;;;2.88;;
49444;SDS011;35323;43.080;-81.378;2023-12-29T10:27:15;3.20;;;2.10;;
49444;SDS011;35323;43.080;-81.378;2023-12-29T10:29:43;2.88;;;2.67;;
49444;SDS011;35323;43.080;-81.378;2023-12-29T10:32:11;2.13;;;1.92;;
49444;SDS011;35323;43.080;-81.378;2023-12-29T10:34:39;1.55;;;1.45;;
49444;SDS011;35323;43.080;-81.378;2023-12-29T10:37:09;5.45;;;3.00;;
49444;SDS011;35323;43.080;-81.378;2023-12-29T10:39:54;8.88;;;4.22;;
49444;SDS011;35323;43.080;-81.378;2023-12-29T10:42:22;5.97;;;3.17;;
49444;SDS011;35323;43.080;-81.378;2023-12-29T10:44:53;9.25;;;4.38;;
49444;SDS011;35323;43.080;-81.378;2023-12-29T10:47:31;7.75;;;4.15;;
49444;SDS011;35323;43.080;-81.378;2023-12-29T10:49:59;5.30;;;2.90;;
49444;SDS011;35323;43.080;-81.378;2023-12-29T10:52:28;3.97;;;1.92;;
49444;SDS011;35323;43.080;-81.378;2023-12-29T10:55:05;4.43;;;2.45;;
49444;SDS011;35323;43.080;-81.378;2023-12-29T10:57:33;5.95;;;3.42;;
49444;SDS011;35323;43.080;-81.378;2023-12-29T11:00:01;7.82;;;3.08;;
49444;SDS011;35323;43.080;-81.378;2023-12-29T11:02:29;3.90;;;3.13;;
49444;SDS011;35323;43.080;-81.378;2023-12-29T11:05:04;7.60;;;3.22;;
49444;SDS011;35323;43.080;-81.378;2023-12-29T11:07:33;5.85;;;1.88;;
49444;SDS011;35323;43.080;-81.378;2023-12-29T11:10:04;6.43;;;3.80;;
49444;SDS011;35323;43.080;-81.378;2023-12-29T11:12:33;5.80;;;4.35;;
49444;SDS011;35323;43.080;-81.378;2023-12-29T11:15:02;3.97;;;2.42;;
49444;SDS011;35323;43.080;-81.378;2023-12-29T11:17:31;4.97;;;3.20;;
49444;SDS011;35323;43.080;-81.378;2023-12-29T11:20:00;4.22;;;2.63;;
49444;SDS011;35323;43.080;-81.378;2023-12-29T11:22:29;3.00;;;2.75;;
49444;SDS011;35323;43.080;-81.378;2023-12-29T11:24:57;9.55;;;4.20;;
49444;SDS011;35323;43.080;-81.378;2023-12-29T11:27:28;4.47;;;3.63;;
49444;SDS011;35323;43.080;-81.378;2023-12-29T11:29:57;3.88;;;2.75;;
49444;SDS011;35323;43.080;-81.378;2023-12-29T11:32:38;3.05;;;2.30;;
49444;SDS011;35323;43.080;-81.378;2023-12-29T11:42:44;6.60;;;3.15;;
49444;SDS011;35323;43.080;-81.378;2023-12-29T11:45:26;3.78;;;2.65;;
49444;SDS011;35323;43.080;-81.378;2023-12-29T11:47:55;2.53;;;2.00;;
49444;SDS011;35323;43.080;-81.378;2023-12-29T11:50:30;2.83;;;2.00;;
49444;SDS011;35323;43.080;-81.378;2023-12-29T11:52:58;6.82;;;3.80;;
49444;SDS011;35323;43.080;-81.378;2023-12-29T11:55:33;5.40;;;2.58;;
49444;SDS011;35323;43.080;-81.378;2023-12-29T11:58:02;6.63;;;3.55;;
49444;SDS011;35323;43.080;-81.378;2023-12-29T12:00:41;2.70;;;2.50;;
49444;SDS011;35323;43.080;-81.378;2023-12-29T12:03:34;7.63;;;1.95;;
49444;SDS011;35323;43.080;-81.378;2023-12-29T12:06:02;3.92;;;1.80;;
49444;SDS011;35323;43.080;-81.378;2023-12-29T12:08:35;3.83;;;2.80;;
49444;SDS011;35323;43.080;-81.378;2023-12-29T12:13:51;4.38;;;3.67;;
49444;SDS011;35323;43.080;-81.378;2023-12-29T12:19:05;7.22;;;3.97;;
49444;SDS011;35323;43.080;-81.378;2023-12-29T12:21:34;5.80;;;2.47;;
49444;SDS011;35323;43.080;-81.378;2023-12-29T12:24:06;12.70;;;3.10;;
49444;SDS011;35323;43.080;-81.378;2023-12-29T12:26:34;3.65;;;1.80;;
49444;SDS011;35323;43.080;-81.378;2023-12-29T12:29:02;2.80;;;2.58;;
49444;SDS011;35323;43.080;-81.378;2023-12-29T12:31:29;5.18;;;2.80;;
49444;SDS011;35323;43.080;-81.378;2023-12-29T12:33:57;5.80;;;3.20;;
49444;SDS011;35323;43.080;-81.378;2023-12-29T12:36:25;4.22;;;1.80;;
49444;SDS011;35323;43.080;-81.378;2023-12-29T12:38:54;9.63;;;3.85;;
49444;SDS011;35323;43.080;-81.378;2023-12-29T12:41:22;5.13;;;3.40;;
49444;SDS011;35323;43.080;-81.378;2023-12-29T12:43:53;6.78;;;3.85;;
49444;SDS011;35323;43.080;-81.378;2023-12-29T12:46:24;6.03;;;4.32;;
49444;SDS011;35323;43.080;-81.378;2023-12-29T12:48:53;7.68;;;3.03;;
49444;SDS011;35323;43.080;-81.378;2023-12-29T12:51:22;3.20;;;2.05;;
49444;SDS011;35323;43.080;-81.378;2023-12-29T12:53:50;5.95;;;1.95;;
49444;SDS011;35323;43.080;-81.378;2023-12-29T12:56:18;5.97;;;2.85;;
49444;SDS011;35323;43.080;-81.378;2023-12-29T12:58:47;6.15;;;2.85;;
49444;SDS011;35323;43.080;-81.378;2023-12-29T13:01:14;3.47;;;3.20;;
49444;SDS011;35323;43.080;-81.378;2023-12-29T13:03:43;7.72;;;3.72;;
49444;SDS011;35323;43.080;-81.378;2023-12-29T13:06:12;4.50;;;2.80;;
49444;SDS011;35323;43.080;-81.378;2023-12-29T13:08:40;4.53;;;2.90;;
49444;SDS011;35323;43.080;-81.378;2023-12-29T13:11:10;2.58;;;2.05;;
49444;SDS011;35323;43.080;-81.378;2023-12-29T13:13:40;11.68;;;3.92;;
49444;SDS011;35323;43.080;-81.378;2023-12-29T13:16:08;4.35;;;3.78;;
49444;SDS011;35323;43.080;-81.378;2023-12-29T13:18:36;5.85;;;3.33;;
49444;SDS011;35323;43.080;-81.378;2023-12-29T13:21:07;7.32;;;3.22;;
49444;SDS011;35323;43.080;-81.378;2023-12-29T13:23:36;4.05;;;2.88;;
49444;SDS011;35323;43.080;-81.378;2023-12-29T13:26:07;4.60;;;3.67;;
49444;SDS011;35323;43.080;-81.378;2023-12-29T13:28:36;6.70;;;3.80;;
49444;SDS011;35323;43.080;-81.378;2023-12-29T13:31:07;6.82;;;5.05;;
49444;SDS011;35323;43.080;-81.378;2023-12-29T13:36:08;4.97;;;3.97;;
49444;SDS011;35323;43.080;-81.378;2023-12-29T13:38:39;7.10;;;4.93;;
49444;SDS011;35323;43.080;-81.378;2023-12-29T13:41:11;6.38;;;3.25;;
49444;SDS011;35323;43.080;-81.378;2023-12-29T13:43:40;4.43;;;3.72;;
49444;SDS011;35323;43.080;-81.378;2023-12-29T13:46:10;5.80;;;3.67;;
49444;SDS011;35323;43.080;-81.378;2023-12-29T13:48:39;3.53;;;2.97;;
49444;SDS011;35323;43.080;-81.378;2023-12-29T13:51:08;7.53;;;3.75;;
49444;SDS011;35323;43.080;-81.378;2023-12-29T13:53:36;4.43;;;3.05;;
49444;SDS011;35323;43.080;-81.378;2023-12-29T13:56:07;4.18;;;2.05;;
49444;SDS011;35323;43.080;-81.378;2023-12-29T13:58:35;6.22;;;3.92;;
49444;SDS011;35323;43.080;-81.378;2023-12-29T14:01:08;8.05;;;4.57;;
49444;SDS011;35323;43.080;-81.378;2023-12-29T14:03:42;4.03;;;3.20;;
49444;SDS011;35323;43.080;-81.378;2023-12-29T14:06:12;9.02;;;3.58;;
49444;SDS011;35323;43.080;-81.378;2023-12-29T14:08:45;5.47;;;3.17;;
49444;SDS011;35323;43.080;-81.378;2023-12-29T14:11:13;1.80;;;1.67;;
49444;SDS011;35323;43.080;-81.378;2023-12-29T14:13:45;5.93;;;3.30;;
49444;SDS011;35323;43.080;-81.378;2023-12-29T14:16:12;7.25;;;3.30;;
49444;SDS011;35323;43.080;-81.378;2023-12-29T14:21:23;9.18;;;3.53;;
49444;SDS011;35323;43.080;-81.378;2023-12-29T14:26:25;3.83;;;2.15;;
49444;SDS011;35323;43.080;-81.378;2023-12-29T14:29:05;5.03;;;3.92;;
49444;SDS011;35323;43.080;-81.378;2023-12-29T14:31:37;6.50;;;4.88;;
49444;SDS011;35323;43.080;-81.378;2023-12-29T14:34:05;5.00;;;3.63;;
49444;SDS011;35323;43.080;-81.378;2023-12-29T14:36:33;5.63;;;3.78;;
49444;SDS011;35323;43.080;-81.378;2023-12-29T14:39:01;9.38;;;3.33;;
49444;SDS011;35323;43.080;-81.378;2023-12-29T14:41:33;4.38;;;3.78;;
49444;SDS011;35323;43.080;-81.378;2023-12-29T14:44:01;6.88;;;3.70;;
49444;SDS011;35323;43.080;-81.378;2023-12-29T14:46:29;3.22;;;2.08;;
49444;SDS011;35323;43.080;-81.378;2023-12-29T14:48:57;2.75;;;2.28;;
49444;SDS011;35323;43.080;-81.378;2023-12-29T14:51:26;4.70;;;2.75;;
49444;SDS011;35323;43.080;-81.378;2023-12-29T14:53:54;9.63;;;3.20;;
49444;SDS011;35323;43.080;-81.378;2023-12-29T14:56:22;4.43;;;3.75;;
49444;SDS011;35323;43.080;-81.378;2023-12-29T14:58:50;5.72;;;3.88;;
49444;SDS011;35323;43.080;-81.378;2023-12-29T15:01:18;3.05;;;2.28;;
49444;SDS011;35323;43.080;-81.378;2023-12-29T15:03:46;6.60;;;3.28;;
49444;SDS011;35323;43.080;-81.378;2023-12-29T15:06:14;5.45;;;3.58;;